Time;durP1;ratioP1;P1;durP2;ratioP2;P2;SDS_P1;SDS_P2;PMS_P1;PMS_P2;Temp;Humidity;BMP_temperature;BMP_pressure;BME280_temperature;BME280_humidity;BME280_pressure;Samples;Min_cycle;Max_cycle;Signal;HPM_P1;HPM_P2
2022/09/18 00:01:06;;;;;;;5.40;1.33;;;12.40;99.90;;;;;;4970301;28;20023;-74
2022/09/18 00:03:31;;;;;;;17.08;2.20;;;12.40;99.90;;;;;;4968133;28;20145;-74
2022/09/18 00:05:59;;;;;;;11.73;1.85;;;12.40;99.90;;;;;;4976590;28;20165;-74
2022/09/18 00:08:25;;;;;;;15.77;2.03;;;12.40;99.90;;;;;;4970316;28;20026;-75
2022/09/18 00:10:50;;;;;;;11.98;1.52;;;12.40;99.90;;;;;;4976765;28;20027;-74
2022/09/18 00:13:16;;;;;;;9.75;1.65;;;12.40;99.90;;;;;;4971988;28;20039;-74
2022/09/18 00:15:52;;;;;;;14.02;1.63;;;12.40;99.90;;;;;;4969145;28;20039;-71
2022/09/18 00:18:18;;;;;;;6.00;1.55;;;12.40;99.90;;;;;;4972631;28;20510;-72
2022/09/18 00:20:46;;;;;;;10.93;1.70;;;12.30;99.90;;;;;;4987399;28;20034;-75
2022/09/18 00:23:11;;;;;;;7.47;1.67;;;12.40;99.90;;;;;;4967985;28;20061;-72
2022/09/18 00:25:37;;;;;;;13.57;2.03;;;12.40;99.90;;;;;;4969611;28;20598;-74
2022/09/18 00:28:03;;;;;;;12.18;2.65;;;12.40;99.90;;;;;;4974972;28;20022;-75
2022/09/18 00:30:28;;;;;;;8.50;1.40;;;12.50;99.90;;;;;;4976955;28;20023;-74
2022/09/18 00:32:54;;;;;;;8.25;1.60;;;12.50;99.90;;;;;;4976394;28;20729;-74
2022/09/18 00:35:22;;;;;;;11.57;1.50;;;12.50;99.90;;;;;;4974764;28;20026;-73
2022/09/18 00:37:48;;;;;;;13.13;2.15;;;12.50;99.90;;;;;;4969162;28;20086;-74
2022/09/18 00:40:15;;;;;;;9.93;1.55;;;12.50;99.90;;;;;;4964943;28;20167;-74
2022/09/18 00:42:41;;;;;;;14.10;2.08;;;12.60;99.90;;;;;;4966138;28;20030;-74
2022/09/18 00:45:09;;;;;;;10.85;1.63;;;12.60;99.90;;;;;;4972695;28;20081;-74
2022/09/18 00:47:41;;;;;;;7.47;1.70;;;12.60;99.90;;;;;;4968648;28;20026;-73
2022/09/18 00:50:13;;;;;;;6.22;1.67;;;12.60;99.90;;;;;;4969766;28;20019;-72
2022/09/18 00:52:58;;;;;;;10.68;1.30;;;12.60;99.90;;;;;;4976738;28;20031;-75
2022/09/18 00:55:31;;;;;;;16.30;1.67;;;12.60;99.90;;;;;;4973345;28;20028;-74
2022/09/18 00:57:58;;;;;;;;;;;12.60;99.90;;;;;;4968831;28;20094;-73
2022/09/18 01:00:23;;;;;;;7.70;1.63;;;12.60;99.90;;;;;;4967046;28;19938;-68
2022/09/18 01:02:51;;;;;;;7.45;1.48;;;12.70;99.90;;;;;;4973942;28;20038;-76
2022/09/18 01:05:57;;;;;;;9.13;1.60;;;12.70;99.90;;;;;;4968533;28;20062;-75
2022/09/18 01:08:52;;;;;;;12.63;1.83;;;12.70;99.90;;;;;;4969260;28;20022;-74
2022/09/18 01:11:17;;;;;;;10.18;2.50;;;12.70;99.90;;;;;;4974561;28;20062;-73
2022/09/18 01:13:56;;;;;;;7.72;2.03;;;12.70;99.90;;;;;;4964274;28;20059;-69
2022/09/18 01:16:34;;;;;;;9.73;1.70;;;12.70;99.90;;;;;;4968258;28;20093;-76
2022/09/18 01:19:05;;;;;;;10.80;2.03;;;12.70;99.90;;;;;;4965556;28;20066;-72
2022/09/18 01:21:59;;;;;;;8.90;2.10;;;12.70;99.90;;;;;;4975872;28;20045;-75
2022/09/18 01:25:03;;;;;;;9.30;1.80;;;12.70;99.90;;;;;;4980976;28;20485;-74
2022/09/18 01:27:57;;;;;;;14.65;2.63;;;12.70;99.90;;;;;;4965762;28;20098;-73
2022/09/18 01:30:23;;;;;;;6.88;2.00;;;12.70;99.90;;;;;;4963297;28;20042;-74
2022/09/18 01:33:05;;;;;;;13.57;2.15;;;12.70;99.90;;;;;;4971784;28;20326;-73
2022/09/18 01:35:57;;;;;;;10.37;1.83;;;12.80;99.90;;;;;;4974013;28;20035;-73
2022/09/18 01:38:33;;;;;;;6.32;1.50;;;12.80;99.90;;;;;;4968592;28;20058;-74
2022/09/18 01:41:25;;;;;;;13.55;1.95;;;12.80;99.90;;;;;;4970623;28;20528;-74
2022/09/18 01:44:06;;;;;;;10.00;1.80;;;12.90;99.90;;;;;;4970469;28;20042;-74
2022/09/18 01:46:36;;;;;;;9.52;2.30;;;12.90;99.90;;;;;;4967615;28;20042;-74
2022/09/18 01:49:09;;;;;;;8.88;2.47;;;12.90;99.90;;;;;;4965411;28;20516;-74
2022/09/18 01:51:48;;;;;;;11.25;2.03;;;12.80;99.90;;;;;;4963479;28;20039;-76
2022/09/18 01:54:19;;;;;;;6.90;1.75;;;12.80;99.90;;;;;;4967184;28;20658;-74
2022/09/18 01:57:11;;;;;;;8.63;2.13;;;12.80;99.90;;;;;;4970694;28;20122;-75
2022/09/18 02:00:11;;;;;;;11.55;2.10;;;12.80;99.90;;;;;;4965447;28;20129;-70
2022/09/18 02:03:00;;;;;;;8.90;2.05;;;12.80;99.90;;;;;;4967201;28;20034;-75
2022/09/18 02:05:34;;;;;;;8.45;1.80;;;12.70;99.90;;;;;;4985646;28;20019;-73
2022/09/18 02:08:08;;;;;;;11.65;2.40;;;12.70;99.90;;;;;;4972918;28;20460;-75
2022/09/18 02:10:39;;;;;;;6.38;2.30;;;12.80;99.90;;;;;;4969201;28;20034;-74
2022/09/18 02:13:08;;;;;;;12.57;2.40;;;12.80;99.90;;;;;;4966167;28;20050;-74
2022/09/18 02:15:40;;;;;;;7.07;2.00;;;12.70;99.90;;;;;;4961806;28;20050;-75
2022/09/18 02:18:10;;;;;;;12.05;2.15;;;12.70;99.90;;;;;;4981256;28;20022;-75
2022/09/18 02:20:41;;;;;;;8.55;1.95;;;12.70;99.90;;;;;;4965300;28;20125;-75
2022/09/18 02:23:08;;;;;;;6.15;1.80;;;12.70;99.90;;;;;;4970610;28;20121;-75
2022/09/18 02:25:54;;;;;;;10.80;2.35;;;12.70;99.90;;;;;;4974115;28;20078;-74
2022/09/18 02:28:23;;;;;;;7.03;2.30;;;12.70;99.90;;;;;;4972036;28;20141;-75
2022/09/18 02:30:48;;;;;;;10.13;2.55;;;12.60;99.90;;;;;;4975493;28;20039;-72
2022/09/18 02:33:29;;;;;;;10.45;1.90;;;12.70;99.90;;;;;;4973703;28;20037;-74
2022/09/18 02:36:19;;;;;;;6.95;1.88;;;12.70;99.90;;;;;;4968452;28;20034;-75
2022/09/18 02:39:22;;;;;;;11.50;2.30;;;12.70;99.90;;;;;;4963651;28;20519;-74
2022/09/18 02:42:16;;;;;;;7.40;1.65;;;12.70;99.90;;;;;;4969521;28;20031;-75
2022/09/18 02:44:55;;;;;;;6.80;1.58;;;12.70;99.90;;;;;;4965291;28;20029;-76
2022/09/18 02:47:46;;;;;;;7.78;1.60;;;12.60;99.90;;;;;;4978725;28;20023;-74
2022/09/18 02:50:37;;;;;;;9.30;1.67;;;12.70;99.90;;;;;;4975558;28;20083;-75
2022/09/18 02:53:24;;;;;;;8.30;1.70;;;12.70;99.90;;;;;;4971336;28;20023;-73
2022/09/18 02:56:01;;;;;;;9.57;2.08;;;12.70;99.90;;;;;;4969626;28;20413;-75
2022/09/18 02:58:52;;;;;;;7.35;2.03;;;12.70;99.90;;;;;;4967698;28;20066;-73
2022/09/18 03:01:19;;;;;;;10.68;1.85;;;12.70;99.90;;;;;;4962770;28;20337;-74
2022/09/18 03:03:46;;;;;;;8.88;1.67;;;12.70;99.90;;;;;;4962526;28;20359;-75
2022/09/18 03:06:14;;;;;;;8.95;1.63;;;12.60;99.90;;;;;;4972230;28;20157;-75
2022/09/18 03:08:40;;;;;;;11.20;1.58;;;12.60;99.90;;;;;;4971993;28;20570;-75
2022/09/18 03:11:08;;;;;;;4.82;1.60;;;12.70;99.90;;;;;;4966882;28;20448;-72
2022/09/18 03:13:38;;;;;;;9.43;1.70;;;12.70;99.90;;;;;;4969430;28;20049;-72
2022/09/18 03:16:04;;;;;;;9.20;1.75;;;12.80;99.90;;;;;;4957515;28;20042;-73
2022/09/18 03:18:32;;;;;;;14.57;1.77;;;12.70;99.90;;;;;;4969387;28;20034;-73
2022/09/18 03:20:57;;;;;;;9.50;1.98;;;12.70;99.90;;;;;;4973468;28;20030;-71
2022/09/18 03:23:23;;;;;;;7.38;1.33;;;12.70;99.90;;;;;;4972708;28;20035;-76
2022/09/18 03:25:50;;;;;;;6.28;1.77;;;12.60;99.90;;;;;;4961883;28;20103;-72
2022/09/18 03:28:16;;;;;;;15.23;1.90;;;12.60;99.90;;;;;;4962719;28;20023;-74
2022/09/18 03:30:44;;;;;;;7.75;1.70;;;12.60;99.90;;;;;;4967136;28;20027;-74
2022/09/18 03:33:09;;;;;;;7.05;1.80;;;12.60;99.90;;;;;;4973573;28;20035;-74
2022/09/18 03:35:35;;;;;;;12.32;1.50;;;12.60;99.90;;;;;;4980221;28;20044;-73
2022/09/18 03:38:01;;;;;;;7.40;1.35;;;12.60;99.90;;;;;;4976259;28;20041;-74
2022/09/18 03:40:26;;;;;;;7.80;1.70;;;12.60;99.90;;;;;;4970056;28;20028;-74
2022/09/18 03:42:52;;;;;;;6.55;1.63;;;12.60;99.90;;;;;;4970133;28;20044;-74
2022/09/18 03:45:20;;;;;;;7.13;1.67;;;12.60;99.90;;;;;;4969544;28;20015;-75
2022/09/18 03:47:48;;;;;;;10.07;1.90;;;12.60;99.90;;;;;;4965404;28;20018;-74
2022/09/18 03:50:16;;;;;;;8.05;1.73;;;12.60;99.90;;;;;;4962888;28;20035;-74
2022/09/18 03:52:42;;;;;;;3.97;1.38;;;12.60;99.90;;;;;;4963673;28;20452;-73
2022/09/18 03:55:08;;;;;;;9.35;1.67;;;12.60;99.90;;;;;;4965087;28;20026;-74
2022/09/18 03:57:34;;;;;;;5.47;1.92;;;12.50;99.90;;;;;;4971899;28;20467;-76
2022/09/18 04:00:03;;;;;;;6.97;1.70;;;12.50;99.90;;;;;;4970236;28;20110;-72
2022/09/18 04:02:28;;;;;;;9.43;1.48;;;12.50;99.90;;;;;;4971439;28;20042;-71
2022/09/18 04:04:54;;;;;;;8.32;1.55;;;12.50;99.90;;;;;;4965792;28;20027;-72
2022/09/18 04:07:20;;;;;;;7.57;1.35;;;12.50;99.90;;;;;;4967556;28;20055;-74
2022/09/18 04:09:46;;;;;;;4.90;1.75;;;12.50;99.90;;;;;;4969196;28;20110;-73
2022/09/18 04:12:11;;;;;;;6.75;1.48;;;12.60;99.90;;;;;;4966952;28;20034;-74
2022/09/18 04:14:37;;;;;;;4.55;1.48;;;12.60;99.90;;;;;;4967807;28;20045;-72
2022/09/18 04:17:03;;;;;;;5.93;1.50;;;12.60;99.90;;;;;;4963166;28;20437;-72
2022/09/18 04:19:31;;;;;;;4.13;1.30;;;12.60;99.90;;;;;;4964779;28;20023;-73
2022/09/18 04:21:56;;;;;;;5.50;1.55;;;12.60;99.90;;;;;;4967807;28;20464;-73
2022/09/18 04:24:22;;;;;;;3.53;1.60;;;12.60;99.90;;;;;;4981067;28;20045;-74
2022/09/18 04:26:48;;;;;;;5.05;1.25;;;12.60;99.90;;;;;;4979938;28;20451;-73
2022/09/18 04:29:14;;;;;;;14.52;2.17;;;12.60;99.90;;;;;;4973066;28;20049;-71
2022/09/18 04:31:40;;;;;;;9.57;1.58;;;12.70;99.90;;;;;;4977597;28;20027;-72
2022/09/18 04:34:06;;;;;;;5.25;1.60;;;12.70;99.90;;;;;;4974868;28;20040;-73
2022/09/18 04:36:34;;;;;;;6.15;1.90;;;12.70;99.90;;;;;;4964384;28;20031;-72
2022/09/18 04:39:00;;;;;;;11.50;1.50;;;12.70;99.90;;;;;;4982167;28;20038;-72
2022/09/18 04:41:26;;;;;;;12.32;1.55;;;12.70;99.90;;;;;;4973353;28;20113;-74
2022/09/18 04:43:51;;;;;;;11.60;3.13;;;12.70;99.90;;;;;;4972815;28;20450;-74
2022/09/18 04:46:17;;;;;;;16.70;1.92;;;12.70;99.90;;;;;;4975572;28;20720;-72
2022/09/18 04:48:46;;;;;;;11.25;1.58;;;12.80;99.90;;;;;;4976228;28;20027;-74
2022/09/18 04:51:15;;;;;;;3.15;1.50;;;12.80;99.90;;;;;;4971956;28;20027;-74
2022/09/18 04:53:40;;;;;;;9.95;1.80;;;12.70;99.90;;;;;;4968475;28;20030;-73
2022/09/18 04:56:06;;;;;;;6.75;1.33;;;12.80;99.90;;;;;;4975484;28;20168;-72
2022/09/18 04:58:32;;;;;;;5.57;1.48;;;12.80;99.90;;;;;;4967065;28;20031;-72
2022/09/18 05:01:00;;;;;;;6.25;1.60;;;12.80;99.90;;;;;;4966825;28;20093;-74
2022/09/18 05:03:26;;;;;;;4.25;1.67;;;12.80;99.90;;;;;;4965405;28;20045;-75
2022/09/18 05:05:55;;;;;;;3.78;1.30;;;12.80;99.90;;;;;;4968702;28;20016;-74
2022/09/18 05:08:22;;;;;;;9.40;1.63;;;12.80;99.90;;;;;;4971306;28;20087;-72
2022/09/18 05:10:48;;;;;;;4.15;1.40;;;12.80;99.90;;;;;;4973084;28;20031;-73
2022/09/18 05:13:14;;;;;;;6.35;1.48;;;12.80;99.90;;;;;;4975325;28;20034;-74
2022/09/18 05:15:41;;;;;;;4.20;1.40;;;12.70;99.90;;;;;;4966457;28;20471;-73
2022/09/18 05:18:07;;;;;;;2.92;1.48;;;12.70;99.90;;;;;;4970871;28;20174;-73
2022/09/18 05:20:34;;;;;;;7.20;1.70;;;12.70;99.90;;;;;;4987517;28;20027;-74
2022/09/18 05:23:00;;;;;;;8.80;1.75;;;12.70;99.90;;;;;;4969598;28;20484;-72
2022/09/18 05:25:27;;;;;;;6.65;2.00;;;12.70;99.90;;;;;;4971548;28;20046;-73
2022/09/18 05:28:03;;;;;;;7.43;1.98;;;12.80;99.90;;;;;;4965020;28;20018;-74
2022/09/18 05:30:30;;;;;;;9.27;2.60;;;12.80;99.90;;;;;;4974394;28;20018;-73
2022/09/18 05:33:01;;;;;;;3.75;1.77;;;12.80;99.90;;;;;;4973060;28;20034;-75
2022/09/18 05:35:30;;;;;;;7.18;2.33;;;12.80;99.90;;;;;;4978768;28;20098;-73
2022/09/18 05:37:56;;;;;;;5.07;2.05;;;12.80;99.90;;;;;;4981073;28;20514;-73
2022/09/18 05:40:25;;;;;;;5.40;1.90;;;12.80;99.90;;;;;;4964343;28;20061;-73
2022/09/18 05:42:52;;;;;;;8.73;1.90;;;12.80;99.90;;;;;;4975318;28;20065;-74
2022/09/18 05:45:18;;;;;;;7.30;2.05;;;12.90;99.90;;;;;;4971396;28;20019;-74
2022/09/18 05:47:55;;;;;;;7.43;2.00;;;12.90;99.90;;;;;;4963111;28;20030;-71
2022/09/18 05:50:22;;;;;;;5.20;1.83;;;12.90;99.90;;;;;;4966126;28;20085;-74
2022/09/18 05:53:07;;;;;;;5.95;1.83;;;12.90;99.90;;;;;;4965439;28;20365;-76
2022/09/18 05:55:36;;;;;;;4.50;1.95;;;12.90;99.90;;;;;;4973835;28;20070;-75
2022/09/18 05:58:03;;;;;;;4.57;2.38;;;12.90;99.90;;;;;;4973368;28;20031;-75
2022/09/18 06:00:35;;;;;;;6.80;2.30;;;13.00;99.90;;;;;;4972385;28;20479;-73
2022/09/18 06:03:03;;;;;;;6.43;2.10;;;12.90;99.90;;;;;;4974137;28;20580;-75
2022/09/18 06:05:33;;;;;;;11.25;2.50;;;12.90;99.90;;;;;;4977178;28;20380;-73
2022/09/18 06:08:00;;;;;;;9.05;1.95;;;12.80;99.90;;;;;;4969275;28;20027;-74
2022/09/18 06:10:28;;;;;;;10.20;2.08;;;12.80;99.90;;;;;;4971329;28;20038;-74
2022/09/18 06:13:05;;;;;;;8.20;1.55;;;12.90;99.90;;;;;;4970405;28;20117;-74
2022/09/18 06:15:36;;;;;;;8.05;1.63;;;12.90;99.90;;;;;;4962976;28;20066;-73
2022/09/18 06:18:03;;;;;;;7.63;1.80;;;13.00;99.90;;;;;;4966945;28;20379;-74
2022/09/18 06:20:31;;;;;;;9.23;1.75;;;12.90;99.90;;;;;;4971664;28;20029;-74
2022/09/18 06:23:02;;;;;;;2.75;1.45;;;12.90;99.90;;;;;;4970113;28;20038;-72
2022/09/18 06:25:29;;;;;;;4.55;1.58;;;12.90;99.90;;;;;;4974022;28;20023;-73
2022/09/18 06:28:01;;;;;;;8.60;1.75;;;12.90;99.90;;;;;;4964084;28;20049;-72
2022/09/18 06:30:29;;;;;;;4.93;1.02;;;12.90;99.90;;;;;;4969576;28;20041;-73
2022/09/18 06:32:58;;;;;;;4.07;1.40;;;12.90;99.90;;;;;;4975022;28;20062;-72
2022/09/18 06:35:26;;;;;;;6.63;1.10;;;12.90;99.90;;;;;;4961981;28;20109;-74
2022/09/18 06:37:52;;;;;;;7.20;1.60;;;13.00;99.90;;;;;;4964949;28;20019;-71
2022/09/18 06:40:17;;;;;;;9.40;1.30;;;13.10;99.90;;;;;;4968594;28;20049;-73
2022/09/18 06:42:43;;;;;;;6.63;1.63;;;13.20;99.90;;;;;;4962398;28;20513;-73
2022/09/18 06:45:09;;;;;;;2.53;1.52;;;13.20;99.90;;;;;;4970639;28;20018;-75
2022/09/18 06:47:35;;;;;;;7.25;1.80;;;13.20;99.90;;;;;;4978035;28;20468;-72
2022/09/18 06:50:01;;;;;;;5.07;2.22;;;13.20;99.90;;;;;;4974287;28;20041;-73
2022/09/18 06:52:29;;;;;;;4.13;1.23;;;13.20;99.90;;;;;;4974905;28;20022;-75
2022/09/18 06:54:55;;;;;;;11.82;1.65;;;13.20;99.90;;;;;;4966429;28;20109;-74
2022/09/18 06:57:21;;;;;;;7.90;1.15;;;13.30;99.90;;;;;;4969345;28;20110;-73
2022/09/18 06:59:49;;;;;;;5.35;1.48;;;13.20;99.90;;;;;;4962663;28;20023;-72
2022/09/18 07:02:14;;;;;;;8.45;1.63;;;13.30;99.90;;;;;;4968167;28;20034;-74
2022/09/18 07:04:40;;;;;;;7.82;1.23;;;13.40;99.90;;;;;;4976554;28;20034;-73
2022/09/18 07:07:07;;;;;;;9.95;1.67;;;13.40;99.90;;;;;;4968653;28;20073;-72
2022/09/18 07:09:33;;;;;;;5.93;1.10;;;13.50;99.90;;;;;;4967548;28;20426;-73
2022/09/18 07:11:58;;;;;;;9.18;1.48;;;13.40;99.90;;;;;;4972189;28;20030;-74
2022/09/18 07:14:24;;;;;;;6.65;1.30;;;13.40;99.90;;;;;;4975035;28;20039;-74
2022/09/18 07:16:50;;;;;;;6.28;1.13;;;13.50;99.90;;;;;;4963383;28;20061;-72
2022/09/18 07:19:17;;;;;;;11.15;1.20;;;13.50;99.90;;;;;;4975177;28;20046;-74
2022/09/18 07:21:46;;;;;;;4.95;1.33;;;13.50;99.90;;;;;;4971067;28;20404;-75
2022/09/18 07:24:14;;;;;;;8.15;1.25;;;13.50;99.90;;;;;;4969471;28;20735;-72
2022/09/18 07:26:39;;;;;;;4.32;0.90;;;13.50;99.90;;;;;;4967718;28;20491;-71
2022/09/18 07:29:05;;;;;;;3.85;1.02;;;13.50;99.90;;;;;;4971653;28;20023;-74
2022/09/18 07:31:33;;;;;;;4.47;1.00;;;13.60;99.90;;;;;;4972012;28;20034;-74
2022/09/18 07:33:59;;;;;;;7.95;1.20;;;13.60;99.90;;;;;;4970622;28;20070;-76
2022/09/18 07:36:27;;;;;;;5.63;0.75;;;13.50;99.90;;;;;;4970236;28;20121;-73
2022/09/18 07:38:55;;;;;;;4.13;1.00;;;13.60;99.90;;;;;;4977133;28;20356;-75
2022/09/18 07:41:23;;;;;;;4.03;0.55;;;13.60;99.90;;;;;;4973369;28;20030;-74
2022/09/18 07:43:49;;;;;;;4.57;0.90;;;13.70;99.90;;;;;;4969750;28;20066;-73
2022/09/18 07:46:17;;;;;;;2.80;0.80;;;13.60;99.90;;;;;;4966986;28;20092;-73
2022/09/18 07:48:45;;;;;;;2.67;0.70;;;13.50;99.90;;;;;;4973148;28;20096;-73
2022/09/18 07:51:13;;;;;;;2.67;1.15;;;13.50;99.90;;;;;;4963774;28;20120;-73
2022/09/18 07:53:41;;;;;;;7.15;0.90;;;13.50;99.90;;;;;;4964381;28;20086;-72
2022/09/18 07:56:10;;;;;;;4.43;0.90;;;13.60;99.90;;;;;;4966399;28;20120;-72
2022/09/18 07:58:37;;;;;;;5.90;1.25;;;13.60;99.90;;;;;;4976573;28;20026;-73
2022/09/18 08:01:06;;;;;;;2.25;0.77;;;13.50;99.90;;;;;;4978431;28;20058;-74
2022/09/18 08:03:32;;;;;;;2.65;1.17;;;13.50;99.90;;;;;;4975388;28;20050;-75
2022/09/18 08:06:00;;;;;;;3.58;1.20;;;13.40;99.90;;;;;;4978112;28;20023;-74
2022/09/18 08:08:26;;;;;;;7.53;1.58;;;13.50;99.90;;;;;;4969590;28;20030;-75
2022/09/18 08:10:55;;;;;;;4.57;1.20;;;13.40;99.90;;;;;;4970084;28;20019;-76
2022/09/18 08:13:22;;;;;;;4.72;0.98;;;13.50;99.90;;;;;;4963279;28;20039;-74
2022/09/18 08:15:48;;;;;;;4.28;0.93;;;13.40;99.90;;;;;;4966521;28;20034;-73
2022/09/18 08:18:14;;;;;;;5.90;1.00;;;13.40;99.90;;;;;;4973440;28;20035;-73
2022/09/18 08:20:40;;;;;;;3.33;1.35;;;13.40;99.90;;;;;;4974718;28;20033;-73
2022/09/18 08:23:12;;;;;;;6.90;1.10;;;13.20;99.90;;;;;;4974450;28;20033;-73
2022/09/18 08:25:38;;;;;;;5.70;0.87;;;12.90;99.90;;;;;;4976417;28;20114;-75
2022/09/18 08:28:05;;;;;;;3.63;0.98;;;12.80;99.90;;;;;;4976580;28;20050;-75
2022/09/18 08:30:32;;;;;;;7.63;1.23;;;12.60;99.90;;;;;;4978351;28;20023;-76
2022/09/18 08:33:06;;;;;;;3.75;0.85;;;12.60;99.90;;;;;;4974178;28;20031;-75
2022/09/18 08:35:34;;;;;;;5.53;1.20;;;12.40;99.90;;;;;;4964046;28;20044;-73
2022/09/18 08:38:00;;;;;;;6.05;1.42;;;12.30;99.90;;;;;;4970405;28;20129;-74
2022/09/18 08:40:41;;;;;;;5.03;1.15;;;12.30;99.90;;;;;;4966988;28;20023;-74
2022/09/18 08:43:37;;;;;;;2.00;1.10;;;12.30;99.90;;;;;;4962893;28;20038;-75
2022/09/18 08:46:14;;;;;;;3.85;1.20;;;12.30;99.90;;;;;;4964519;28;20027;-75
2022/09/18 08:48:55;;;;;;;6.60;1.05;;;12.50;99.90;;;;;;4981786;28;20031;-75
2022/09/18 08:51:29;;;;;;;9.20;1.05;;;12.60;99.90;;;;;;4978323;28;20018;-74
2022/09/18 08:54:20;;;;;;;3.00;1.02;;;12.70;99.90;;;;;;4980294;28;20482;-75
2022/09/18 08:56:50;;;;;;;8.60;1.23;;;12.80;99.90;;;;;;4968964;28;20114;-73
2022/09/18 08:59:39;;;;;;;3.30;1.00;;;13.00;99.90;;;;;;4978281;28;20440;-75
2022/09/18 09:02:38;;;;;;;2.17;1.08;;;13.20;99.90;;;;;;4967354;28;20037;-74
2022/09/18 09:05:13;;;;;;;7.28;1.83;;;13.20;99.90;;;;;;4965669;28;20029;-72
2022/09/18 09:08:20;;;;;;;6.32;1.40;;;13.20;99.90;;;;;;4968617;28;20046;-75
2022/09/18 09:11:27;;;;;;;5.40;1.73;;;13.10;99.90;;;;;;4959467;28;20030;-74
2022/09/18 09:14:10;;;;;;;4.30;1.55;;;12.80;99.90;;;;;;4971037;28;20046;-74
2022/09/18 09:16:44;;;;;;;8.18;1.50;;;12.80;99.90;;;;;;4966325;28;20023;-74
2022/09/18 09:19:40;;;;;;;3.40;1.20;;;12.90;99.90;;;;;;4969947;28;20089;-74
2022/09/18 09:22:31;;;;;;;4.05;1.23;;;12.80;99.90;;;;;;4982513;28;20035;-74
2022/09/18 09:25:06;;;;;;;5.70;1.77;;;12.90;99.90;;;;;;4980741;28;20616;-74
2022/09/18 09:27:39;;;;;;;3.92;1.60;;;13.00;99.90;;;;;;4965897;28;20361;-74
2022/09/18 09:30:16;;;;;;;5.50;1.63;;;13.10;99.90;;;;;;4969264;28;20019;-74
2022/09/18 09:32:55;;;;;;;6.03;1.20;;;13.10;99.90;;;;;;4988269;28;20695;-73
2022/09/18 09:35:41;;;;;;;7.07;1.40;;;13.00;99.90;;;;;;4971361;28;20049;-74
2022/09/18 09:38:45;;;;;;;1.63;0.90;;;12.90;99.90;;;;;;4969570;28;20027;-74
2022/09/18 09:41:31;;;;;;;1.60;1.48;;;13.00;99.90;;;;;;4971448;28;20027;-72
2022/09/18 09:44:09;;;;;;;4.40;1.10;;;13.10;99.90;;;;;;4973890;28;20417;-73
2022/09/18 09:46:49;;;;;;;4.97;1.38;;;13.20;99.90;;;;;;4968942;28;20059;-73
2022/09/18 09:49:24;;;;;;;5.32;0.90;;;13.20;99.90;;;;;;4968033;28;20373;-73
2022/09/18 09:52:16;;;;;;;4.93;1.10;;;13.30;99.90;;;;;;4964844;28;20430;-73
2022/09/18 09:54:43;;;;;;;3.38;1.30;;;13.30;99.90;;;;;;4965743;28;20027;-74
2022/09/18 09:57:27;;;;;;;2.80;0.90;;;13.30;99.90;;;;;;4969268;28;20045;-74
2022/09/18 10:00:12;;;;;;;2.75;1.10;;;13.40;99.90;;;;;;4960235;28;20058;-74
2022/09/18 10:03:11;;;;;;;2.67;1.10;;;13.40;99.90;;;;;;4964153;28;20889;-73
2022/09/18 10:05:53;;;;;;;3.63;1.15;;;13.40;99.90;;;;;;4972626;28;20054;-73
2022/09/18 10:08:42;;;;;;;5.28;1.33;;;13.40;99.90;;;;;;4963945;28;20051;-72
2022/09/18 10:11:12;;;;;;;4.03;1.15;;;13.50;99.90;;;;;;4949435;28;20410;-74
2022/09/18 10:14:07;;;;;;;1.83;1.05;;;13.60;99.90;;;;;;4967011;28;20122;-74
2022/09/18 10:16:38;;;;;;;5.68;0.95;;;13.70;99.90;;;;;;4976941;28;20478;-74
2022/09/18 10:19:04;;;;;;;8.75;0.88;;;13.80;99.90;;;;;;4970126;28;20034;-71
2022/09/18 10:21:35;;;;;;;1.45;0.88;;;14.00;99.90;;;;;;4970720;28;20039;-74
2022/09/18 10:24:26;;;;;;;3.38;0.70;;;14.10;99.90;;;;;;4972071;28;20034;-73
2022/09/18 10:27:03;;;;;;;4.68;0.98;;;14.10;99.90;;;;;;4992111;28;20173;-73
2022/09/18 10:29:29;;;;;;;1.95;0.63;;;14.20;99.90;;;;;;4971611;28;20093;-73
2022/09/18 10:31:57;;;;;;;4.50;0.80;;;14.10;99.90;;;;;;4975398;28;20027;-73
2022/09/18 10:34:48;;;;;;;4.50;0.95;;;14.00;99.90;;;;;;4965072;28;20045;-74
2022/09/18 10:37:39;;;;;;;4.25;1.00;;;13.90;99.90;;;;;;4968881;28;20057;-74
2022/09/18 10:40:25;;;;;;;5.43;0.68;;;13.80;99.90;;;;;;4968421;28;20023;-74
2022/09/18 10:42:54;;;;;;;5.15;0.90;;;13.80;99.90;;;;;;4973385;28;20035;-74
2022/09/18 10:45:29;;;;;;;1.83;0.70;;;13.90;99.90;;;;;;4974425;28;20033;-74
2022/09/18 10:48:21;;;;;;;0.70;0.70;;;13.80;99.90;;;;;;4975955;28;20041;-73
2022/09/18 10:51:01;;;;;;;6.47;1.00;;;13.70;99.90;;;;;;4968739;28;20045;-74
2022/09/18 10:53:37;;;;;;;4.78;1.00;;;13.80;99.90;;;;;;4974738;28;20034;-74
2022/09/18 10:56:19;;;;;;;2.78;0.90;;;13.90;99.90;;;;;;4972762;28;20059;-75
2022/09/18 10:58:45;;;;;;;5.00;1.00;;;14.00;99.90;;;;;;4968230;28;20035;-75
2022/09/18 11:01:12;;;;;;;4.10;1.20;;;14.00;99.90;;;;;;4967945;28;20340;-72
2022/09/18 11:03:48;;;;;;;2.55;0.95;;;14.20;99.90;;;;;;4969446;28;20038;-74
2022/09/18 11:06:25;;;;;;;5.38;1.20;;;14.30;99.90;;;;;;4963310;28;20085;-73
2022/09/18 11:08:55;;;;;;;6.38;1.05;;;14.20;99.90;;;;;;4969162;28;20097;-74
2022/09/18 11:11:22;;;;;;;4.72;1.10;;;14.10;99.90;;;;;;4972208;28;20487;-72
2022/09/18 11:14:01;;;;;;;3.03;1.00;;;14.20;99.90;;;;;;4975410;28;20049;-73
2022/09/18 11:16:48;;;;;;;4.60;1.20;;;14.10;99.90;;;;;;4971196;28;20126;-74
2022/09/18 11:19:17;;;;;;;1.98;1.10;;;14.20;99.90;;;;;;4969206;28;20504;-74
2022/09/18 11:21:51;;;;;;;7.78;1.02;;;14.30;99.90;;;;;;4963685;28;20042;-74
2022/09/18 11:24:27;;;;;;;2.78;0.82;;;14.40;99.90;;;;;;4967025;28;20113;-74
2022/09/18 11:26:58;;;;;;;1.95;0.80;;;14.40;99.90;;;;;;4983223;28;20027;-73
2022/09/18 11:29:31;;;;;;;3.28;1.02;;;14.50;99.90;;;;;;4971750;28;20053;-72
2022/09/18 11:32:30;;;;;;;6.70;1.23;;;14.40;99.90;;;;;;4983996;28;20027;-72
2022/09/18 11:35:00;;;;;;;2.72;0.70;;;14.40;99.90;;;;;;4960607;28;20035;-74
2022/09/18 11:37:38;;;;;;;2.08;1.00;;;14.40;99.90;;;;;;4975871;28;20348;-73
2022/09/18 11:40:07;;;;;;;4.05;0.75;;;14.40;99.90;;;;;;4980836;28;20097;-73
2022/09/18 11:42:43;;;;;;;3.45;0.75;;;14.50;99.90;;;;;;4983997;28;20031;-73
2022/09/18 11:45:42;;;;;;;4.13;0.93;;;14.50;99.90;;;;;;4969165;28;20027;-74
2022/09/18 11:48:24;;;;;;;7.32;1.27;;;14.60;99.90;;;;;;4971257;28;20046;-74
2022/09/18 11:50:56;;;;;;;6.03;0.90;;;14.60;99.90;;;;;;4970860;28;20727;-74
2022/09/18 11:53:28;;;;;;;2.33;0.63;;;14.60;99.90;;;;;;4973960;28;20165;-74
2022/09/18 11:56:06;;;;;;;6.85;0.88;;;14.60;99.90;;;;;;4970604;28;20024;-73
2022/09/18 11:58:51;;;;;;;9.15;1.02;;;14.50;99.90;;;;;;4975289;28;20051;-74
2022/09/18 12:01:32;;;;;;;11.55;1.38;;;14.40;99.90;;;;;;4975776;28;20026;-73
2022/09/18 12:04:15;;;;;;;1.02;0.60;;;14.50;99.90;;;;;;4980460;28;20130;-73
2022/09/18 12:06:46;;;;;;;5.47;1.17;;;14.40;99.90;;;;;;4972909;28;20037;-73
2022/09/18 12:09:47;;;;;;;5.13;0.98;;;14.40;99.90;;;;;;4971696;28;20095;-72
2022/09/18 12:12:24;;;;;;;3.40;0.77;;;14.40;99.90;;;;;;4950231;28;20113;-73
2022/09/18 12:15:16;;;;;;;5.90;1.13;;;14.30;99.90;;;;;;4964017;28;20122;-73
2022/09/18 12:18:00;;;;;;;2.42;0.77;;;14.40;99.90;;;;;;4969749;28;20047;-73
2022/09/18 12:20:32;;;;;;;4.05;1.17;;;14.10;99.90;;;;;;4975262;28;20022;-74
2022/09/18 12:23:00;;;;;;;3.50;1.17;;;13.90;99.90;;;;;;4974270;28;20030;-75
2022/09/18 12:25:34;;;;;;;3.00;0.88;;;13.80;99.90;;;;;;4986284;28;20062;-74
2022/09/18 12:28:08;;;;;;;4.55;1.02;;;13.70;99.90;;;;;;4967501;28;20110;-74
2022/09/18 12:30:42;;;;;;;2.38;0.60;;;13.70;99.90;;;;;;4987830;28;20054;-72
2022/09/18 12:33:32;;;;;;;1.88;0.70;;;13.40;99.90;;;;;;4969621;28;20038;-74
2022/09/18 12:36:29;;;;;;;2.70;0.88;;;13.30;99.90;;;;;;4967287;28;20023;-73
2022/09/18 12:39:23;;;;;;;3.22;0.70;;;13.30;99.90;;;;;;4970398;28;20413;-73
2022/09/18 12:41:52;;;;;;;3.22;0.80;;;13.40;99.90;;;;;;4979168;28;20027;-74
2022/09/18 12:44:24;;;;;;;3.58;0.80;;;13.40;99.90;;;;;;4973734;28;20023;-74
2022/09/18 12:46:58;;;;;;;1.93;0.70;;;13.50;99.90;;;;;;4956159;28;20067;-73
2022/09/18 12:49:38;;;;;;;4.47;0.95;;;13.60;99.90;;;;;;4974446;28;20022;-74
2022/09/18 12:52:32;;;;;;;5.10;1.10;;;13.60;99.90;;;;;;4976802;28;20080;-74
2022/09/18 12:55:00;;;;;;;3.67;0.98;;;13.70;99.90;;;;;;4973807;28;20031;-74
2022/09/18 12:57:41;;;;;;;3.33;0.90;;;13.80;99.90;;;;;;4986968;28;20026;-74
2022/09/18 13:00:13;;;;;;;3.45;1.13;;;13.80;99.90;;;;;;4967707;28;20134;-72
2022/09/18 13:02:53;;;;;;;6.43;1.50;;;13.80;99.90;;;;;;4967260;28;20046;-74
2022/09/18 13:05:32;;;;;;;6.15;0.95;;;13.80;99.90;;;;;;4970331;28;20337;-74
2022/09/18 13:08:05;;;;;;;11.52;1.23;;;13.80;99.90;;;;;;4979952;28;20015;-73
2022/09/18 13:10:45;;;;;;;2.80;1.00;;;13.40;99.90;;;;;;4975452;28;20022;-74
2022/09/18 13:13:14;;;;;;;2.25;1.05;;;13.00;99.90;;;;;;4973889;28;20035;-72
2022/09/18 13:15:45;;;;;;;2.60;1.05;;;13.10;99.90;;;;;;4977391;28;20036;-74
2022/09/18 13:18:13;;;;;;;2.95;1.45;;;13.00;99.90;;;;;;4970317;28;20039;-73